Wausau, WI

10:25 PM CST on December 09, 2016 (GMT -0600)
Thomas Jefferson Elementary, Across the Street | | Change Station

Elev 1276 ft 44.98 °N, 89.64 °W | Updated 3 seconds ago

Light Snow
Light Snow
13.7 °F
Feels Like 14 °F
N
2.0
Wind Variable Wind from West

Today
High -- | Low -- °F
--% Chance of Precip.
Yesterday
High -- | Low -- °F
Precip. -- in
Pressure 30.48 in
Visibility 7.0 miles
Clouds Overcast 3600 ft
Windchill 14 °F
Dew Point 9 °F
Humidity 83%
Rainfall 0.00 in
Snow Depth Not available.
7:25 AM 4:17 PM
Waxing Gibbous, 80% visible
METAR KAUW 100354Z AUTO 28008KT 7SM -SN OVC036 M09/M13 A3039 RMK AO2 SNE0255B48 SLP320 P0000 T10941133
Pressure 30.48 in
Visibility 7.0 miles
Clouds Overcast 3600 ft
Windchill 14 °F
Dew Point 9 °F
Humidity 83%
Rainfall 0.00 in
Snow Depth Not available.
7:25 AM 4:17 PM
Waxing Gibbous, 80% visible
METAR KAUW 100354Z AUTO 28008KT 7SM -SN OVC036 M09/M13 A3039 RMK AO2 SNE0255B48 SLP320 P0000 T10941133

10-Day Weather Forecast

Almanac

Astronomy

Dec. 09, 2016 Rise Set
Actual Time
Civil Twilight
Nautical Twilight
Astronomical Twilight
Moon
Length of Visible Light
Length of Day
Tomorrow will be .
, % of the Moon is Illuminated

Today's Extremes

State Highs State Lows

Community

WunderPhotos

Upload Photos

1,956,529 photos uploaded!

WunderBlog® & News

Nearby

Air Quality

  Air Quality AQ Index Pollutant
Not available.

Snow Depth

Station Depth Elevation

Earthquake Activity

City Distance Mag. Time & Date
Minimum magnitude displayed is 2.5.

Coastal Water Temperatures

Place Temperature

Stations

Nearby Weather Stations

Station Location Temp. Windchill Dew Point Humidity Wind Precip. Elev Updated Type
                   

Watches & Warnings

There are currently no watches in effect.